Time;durP1;ratioP1;P1;durP2;ratioP2;P2;SDS_P1;SDS_P2;PMS_P1;PMS_P2;Temp;Humidity;BMP_temperature;BMP_pressure;BME280_temperature;BME280_humidity;BME280_pressure;Samples;Min_cycle;Max_cycle;Signal;HPM_P1;HPM_P2
2023/04/10 00:03:20;;;;;;;4.78;1.63;;;;;;;;;;10414324;28;20037;-61
2023/04/10 00:08:23;;;;;;;1.63;1.52;;;;;;;;;;10388505;28;20402;-62
2023/04/10 00:13:24;;;;;;;2.65;1.77;;;;;;;;;;10412702;28;20109;-59
2023/04/10 00:18:24;;;;;;;2.67;1.90;;;;;;;;;;10411868;28;20047;-63
2023/04/10 00:23:25;;;;;;;3.17;1.90;;;;;;;;;;10413763;28;20021;-59
2023/04/10 00:28:26;;;;;;;2.42;1.73;;;;;;;;;;10413421;28;20025;-60
2023/04/10 00:33:26;;;;;;;2.53;1.70;;;;;;;;;;10412652;28;20073;-63
2023/04/10 00:38:27;;;;;;;1.50;1.40;;;;;;;;;;10387275;28;20032;-59
2023/04/10 00:43:28;;;;;;;2.08;1.65;;;;;;;;;;10412693;28;20228;-59
2023/04/10 00:48:28;;;;;;;2.00;1.60;;;;;;;;;;10412863;28;20030;-59
2023/04/10 00:53:29;;;;;;;1.95;1.58;;;;;;;;;;10398984;28;20077;-59
2023/04/10 00:58:30;;;;;;;1.88;1.70;;;;;;;;;;10401831;28;20036;-59
2023/04/10 01:03:30;;;;;;;1.80;1.50;;;;;;;;;;10411248;28;20511;-59
2023/04/10 01:09:13;;;;;;;1.80;1.60;;;;;;;;;;10396943;28;20053;-59
2023/04/10 01:14:49;;;;;;;2.00;1.45;;;;;;;;;;10363883;28;20038;-59
2023/04/10 01:20:01;;;;;;;2.05;1.40;;;;;;;;;;10364075;28;20045;-60
2023/04/10 01:25:39;;;;;;;1.50;1.40;;;;;;;;;;10346958;28;20030;-69
2023/04/10 01:30:40;;;;;;;1.80;1.30;;;;;;;;;;10364470;28;20041;-69
2023/04/10 01:35:46;;;;;;;1.75;1.63;;;;;;;;;;10362272;28;20045;-71
2023/04/10 01:40:52;;;;;;;2.70;1.73;;;;;;;;;;10347333;28;20653;-68
2023/04/10 01:45:53;;;;;;;1.63;1.40;;;;;;;;;;10350667;28;20049;-60
2023/04/10 01:50:54;;;;;;;2.15;1.92;;;;;;;;;;10410177;28;20076;-59
2023/04/10 01:55:55;;;;;;;1.75;1.65;;;;;;;;;;10419204;28;20041;-59
2023/04/10 02:00:55;;;;;;;2.78;1.60;;;;;;;;;;10407951;28;20044;-59
2023/04/10 02:06:10;;;;;;;1.75;1.60;;;;;;;;;;10406384;28;20026;-59
2023/04/10 02:11:26;;;;;;;2.50;1.90;;;;;;;;;;10404586;28;20075;-59
2023/04/10 02:16:28;;;;;;;1.88;1.50;;;;;;;;;;10407052;28;20369;-60
2023/04/10 02:21:29;;;;;;;1.65;1.55;;;;;;;;;;10401473;28;20033;-60
2023/04/10 02:26:42;;;;;;;2.40;1.70;;;;;;;;;;10383280;28;20041;-60
2023/04/10 02:31:44;;;;;;;1.52;1.42;;;;;;;;;;10414059;28;20041;-70
2023/04/10 02:36:45;;;;;;;1.60;1.50;;;;;;;;;;10412269;28;20521;-60
2023/04/10 02:41:46;;;;;;;1.35;1.25;;;;;;;;;;10415208;28;20099;-59
2023/04/10 02:46:46;;;;;;;1.60;1.50;;;;;;;;;;10408999;28;20386;-59
2023/04/10 02:51:47;;;;;;;1.40;1.30;;;;;;;;;;10407144;28;20050;-59
2023/04/10 02:56:48;;;;;;;1.85;1.50;;;;;;;;;;10393690;28;20025;-60
2023/04/10 03:01:49;;;;;;;4.25;1.70;;;;;;;;;;10407737;28;20021;-60
2023/04/10 03:06:50;;;;;;;1.80;1.70;;;;;;;;;;10409028;28;20025;-59
2023/04/10 03:11:50;;;;;;;2.05;1.60;;;;;;;;;;10408994;28;20049;-59
2023/04/10 03:16:51;;;;;;;1.90;1.45;;;;;;;;;;10406700;28;20025;-69
2023/04/10 03:21:52;;;;;;;1.50;1.40;;;;;;;;;;10408494;28;20025;-59
2023/04/10 03:26:53;;;;;;;1.60;1.50;;;;;;;;;;10394838;28;20028;-59
2023/04/10 03:31:53;;;;;;;1.77;1.60;;;;;;;;;;10408213;28;20026;-59
2023/04/10 03:36:54;;;;;;;1.77;1.58;;;;;;;;;;10414101;28;20022;-59
2023/04/10 03:41:54;;;;;;;1.70;1.60;;;;;;;;;;10415855;28;20416;-59
2023/04/10 03:46:55;;;;;;;1.90;1.67;;;;;;;;;;10414937;28;20361;-60
2023/04/10 03:51:56;;;;;;;2.33;1.60;;;;;;;;;;10413110;28;20112;-59
2023/04/10 03:56:56;;;;;;;3.22;1.70;;;;;;;;;;10414618;28;20032;-60
2023/04/10 04:01:57;;;;;;;1.80;1.70;;;;;;;;;;10414216;28;20029;-59
2023/04/10 04:06:57;;;;;;;1.70;1.60;;;;;;;;;;10413105;28;20616;-59
2023/04/10 04:11:58;;;;;;;1.55;1.45;;;;;;;;;;10414573;28;20156;-59
2023/04/10 04:16:59;;;;;;;1.90;1.80;;;;;;;;;;10412579;28;20477;-59
2023/04/10 04:21:59;;;;;;;1.80;1.65;;;;;;;;;;10411848;28;20040;-59
2023/04/10 04:27:01;;;;;;;1.70;1.60;;;;;;;;;;10412131;28;20033;-61
2023/04/10 04:32:02;;;;;;;1.70;1.60;;;;;;;;;;10412832;28;20029;-59
2023/04/10 04:37:03;;;;;;;2.35;1.70;;;;;;;;;;10413859;28;20021;-59
2023/04/10 04:42:06;;;;;;;1.70;1.60;;;;;;;;;;10416715;28;20156;-60
2023/04/10 04:47:07;;;;;;;1.65;1.55;;;;;;;;;;10405723;28;20113;-59
2023/04/10 04:52:08;;;;;;;1.85;1.60;;;;;;;;;;10411401;28;20052;-59
2023/04/10 04:57:08;;;;;;;1.75;1.65;;;;;;;;;;10412469;28;20450;-59
2023/04/10 05:02:09;;;;;;;1.67;1.58;;;;;;;;;;10398180;28;20030;-59
2023/04/10 05:07:10;;;;;;;3.75;1.60;;;;;;;;;;10412426;28;20040;-60
2023/04/10 05:12:10;;;;;;;1.70;1.60;;;;;;;;;;10411225;28;20099;-59
2023/04/10 05:17:11;;;;;;;1.80;1.70;;;;;;;;;;10410516;28;20021;-60
2023/04/10 05:22:11;;;;;;;2.00;1.80;;;;;;;;;;10411431;28;20271;-59
2023/04/10 05:27:12;;;;;;;1.73;1.63;;;;;;;;;;10410758;28;20036;-60
2023/04/10 05:32:13;;;;;;;1.50;1.35;;;;;;;;;;10408978;28;20371;-59
2023/04/10 05:37:14;;;;;;;2.13;1.67;;;;;;;;;;10410370;28;20439;-59
2023/04/10 05:42:14;;;;;;;1.55;1.45;;;;;;;;;;10415478;28;20080;-60
2023/04/10 05:47:15;;;;;;;1.60;1.50;;;;;;;;;;10410273;28;20026;-59
2023/04/10 05:52:15;;;;;;;1.60;1.50;;;;;;;;;;10408873;28;20060;-60
2023/04/10 05:57:16;;;;;;;1.80;1.70;;;;;;;;;;10408994;28;20098;-59
2023/04/10 06:02:17;;;;;;;2.35;1.70;;;;;;;;;;10408783;28;20385;-59
2023/04/10 06:07:18;;;;;;;2.65;1.77;;;;;;;;;;10409478;28;20032;-60
2023/04/10 06:12:18;;;;;;;1.50;1.40;;;;;;;;;;10408566;28;20067;-60
2023/04/10 06:17:20;;;;;;;2.30;1.90;;;;;;;;;;10405156;28;20068;-60
2023/04/10 06:22:20;;;;;;;1.80;1.70;;;;;;;;;;10403818;28;20108;-61
2023/04/10 06:27:22;;;;;;;2.08;1.50;;;;;;;;;;10406831;28;20489;-61
2023/04/10 06:32:22;;;;;;;3.95;1.73;;;;;;;;;;10407315;28;20022;-63
2023/04/10 06:37:30;;;;;;;2.13;1.40;;;;;;;;;;10407252;28;20025;-61
2023/04/10 06:42:30;;;;;;;7.70;1.80;;;;;;;;;;10407666;28;20123;-60
2023/04/10 06:47:31;;;;;;;2.75;1.77;;;;;;;;;;10408221;28;20040;-60
2023/04/10 06:52:31;;;;;;;2.10;1.50;;;;;;;;;;10407148;28;20072;-61
2023/04/10 06:57:32;;;;;;;1.98;1.50;;;;;;;;;;10408688;28;20033;-60
2023/04/10 07:02:33;;;;;;;6.30;1.60;;;;;;;;;;10407064;28;20040;-60
2023/04/10 07:07:33;;;;;;;1.63;1.52;;;;;;;;;;10408074;28;20071;-61
2023/04/10 07:12:34;;;;;;;2.38;1.70;;;;;;;;;;10416355;28;20025;-60
2023/04/10 07:17:34;;;;;;;1.67;1.52;;;;;;;;;;10413461;28;20026;-61
2023/04/10 07:22:35;;;;;;;2.30;1.70;;;;;;;;;;10405049;28;20180;-61
2023/04/10 07:27:35;;;;;;;5.05;1.90;;;;;;;;;;10413708;28;20029;-61
2023/04/10 07:32:38;;;;;;;8.32;2.33;;;;;;;;;;10413143;28;20041;-61
2023/04/10 07:37:39;;;;;;;6.57;1.90;;;;;;;;;;10409944;28;20123;-61
2023/04/10 07:42:39;;;;;;;21.65;2.58;;;;;;;;;;10411417;28;20033;-61
2023/04/10 07:47:40;;;;;;;10.45;2.42;;;;;;;;;;10413091;28;20033;-61
2023/04/10 07:52:41;;;;;;;11.93;2.20;;;;;;;;;;10412543;28;20053;-61
2023/04/10 07:57:41;;;;;;;5.40;2.08;;;;;;;;;;10412650;28;20389;-60
2023/04/10 08:02:42;;;;;;;3.00;1.95;;;;;;;;;;10412385;28;20516;-61
2023/04/10 08:07:42;;;;;;;9.15;2.55;;;;;;;;;;10412565;28;20083;-61
2023/04/10 08:12:43;;;;;;;3.08;2.20;;;;;;;;;;10411921;28;20164;-61
2023/04/10 08:17:44;;;;;;;7.50;1.80;;;;;;;;;;10412103;28;20429;-61
2023/04/10 08:22:44;;;;;;;5.25;1.63;;;;;;;;;;10409733;28;20017;-64
2023/04/10 08:27:45;;;;;;;2.75;1.70;;;;;;;;;;10410903;28;20420;-61
2023/04/10 08:32:46;;;;;;;2.78;1.80;;;;;;;;;;10411252;28;20410;-61
2023/04/10 08:37:46;;;;;;;6.30;1.90;;;;;;;;;;10413280;28;20036;-61
2023/04/10 08:42:47;;;;;;;4.00;1.83;;;;;;;;;;10413275;28;20036;-61
2023/04/10 08:47:51;;;;;;;15.60;2.08;;;;;;;;;;10412829;28;20045;-61
2023/04/10 08:52:55;;;;;;;2.67;2.40;;;;;;;;;;10411340;28;20133;-61
2023/04/10 08:57:56;;;;;;;2.90;1.88;;;;;;;;;;10411213;28;20264;-61
2023/04/10 09:02:57;;;;;;;3.83;2.00;;;;;;;;;;10411085;28;20304;-61
2023/04/10 09:07:58;;;;;;;5.63;2.00;;;;;;;;;;10410337;28;20034;-61
2023/04/10 09:12:59;;;;;;;3.58;2.03;;;;;;;;;;10410227;28;20033;-61
2023/04/10 09:18:02;;;;;;;2.92;1.75;;;;;;;;;;10411540;28;20263;-61
2023/04/10 09:23:20;;;;;;;2.75;1.73;;;;;;;;;;10412120;28;20018;-63
2023/04/10 09:28:20;;;;;;;1.83;1.60;;;;;;;;;;10410553;28;20107;-61
2023/04/10 09:33:26;;;;;;;2.60;1.67;;;;;;;;;;10410449;28;20095;-61
2023/04/10 09:38:27;;;;;;;4.03;1.77;;;;;;;;;;10414425;28;20485;-61
2023/04/10 09:43:28;;;;;;;1.98;1.67;;;;;;;;;;10408680;28;20033;-61
2023/04/10 09:48:28;;;;;;;3.17;1.70;;;;;;;;;;10410312;28;20033;-61
2023/04/10 09:53:30;;;;;;;3.38;1.75;;;;;;;;;;10410300;28;20320;-61
2023/04/10 09:58:31;;;;;;;2.08;1.90;;;;;;;;;;10410588;28;20078;-61
2023/04/10 10:03:32;;;;;;;1.85;1.48;;;;;;;;;;10409345;28;20167;-61
2023/04/10 10:08:34;;;;;;;2.08;1.50;;;;;;;;;;10398576;28;20033;-61
2023/04/10 10:13:48;;;;;;;2.10;1.90;;;;;;;;;;10406795;28;20030;-60
2023/04/10 10:19:23;;;;;;;2.70;1.65;;;;;;;;;;10396586;28;20025;-61
2023/04/10 10:24:25;;;;;;;2.20;1.88;;;;;;;;;;10401177;28;20041;-61
2023/04/10 10:29:30;;;;;;;3.30;1.95;;;;;;;;;;10403528;28;20044;-61
2023/04/10 10:34:32;;;;;;;2.20;1.80;;;;;;;;;;10398455;28;20029;-61
2023/04/10 10:40:13;;;;;;;4.35;1.80;;;;;;;;;;10410574;28;20033;-61
2023/04/10 10:46:01;;;;;;;2.33;1.75;;;;;;;;;;10415709;28;20460;-61
2023/04/10 10:51:03;;;;;;;1.63;1.52;;;;;;;;;;10372488;28;20052;-60
2023/04/10 10:56:19;;;;;;;3.83;1.70;;;;;;;;;;10416335;28;20025;-61
2023/04/10 11:01:21;;;;;;;4.13;1.88;;;;;;;;;;10416344;28;20025;-61
2023/04/10 11:06:49;;;;;;;1.80;1.70;;;;;;;;;;10416188;28;20028;-61
2023/04/10 11:11:58;;;;;;;2.60;1.88;;;;;;;;;;10414017;28;20396;-61
2023/04/10 11:16:58;;;;;;;4.97;1.60;;;;;;;;;;10415873;28;20405;-65
2023/04/10 11:22:07;;;;;;;2.05;1.80;;;;;;;;;;10415273;28;20037;-61
2023/04/10 11:27:07;;;;;;;;;;;;;;;;;;10415289;28;20035;-61
2023/04/10 11:32:09;;;;;;;1.80;1.70;;;;;;;;;;10402667;28;19913;-61
2023/04/10 11:37:09;;;;;;;1.55;1.42;;;;;;;;;;10415232;28;20451;-61
2023/04/10 11:42:11;;;;;;;1.75;1.65;;;;;;;;;;10419217;28;20037;-61
2023/04/10 11:47:12;;;;;;;1.60;1.50;;;;;;;;;;10415230;28;20025;-61
2023/04/10 11:52:23;;;;;;;1.83;1.67;;;;;;;;;;10414352;28;20057;-61
2023/04/10 11:57:23;;;;;;;3.08;1.88;;;;;;;;;;10412827;28;20025;-61
2023/04/10 12:02:24;;;;;;;3.40;1.70;;;;;;;;;;10410045;28;20478;-61
2023/04/10 12:07:28;;;;;;;1.90;1.60;;;;;;;;;;10405064;28;20025;-61
2023/04/10 12:12:36;;;;;;;2.63;1.65;;;;;;;;;;10413087;28;20036;-61
2023/04/10 12:17:37;;;;;;;1.80;1.70;;;;;;;;;;10414356;28;20018;-61
2023/04/10 12:22:38;;;;;;;2.35;1.50;;;;;;;;;;10413795;28;20458;-61
2023/04/10 12:27:38;;;;;;;3.00;1.60;;;;;;;;;;10412680;28;20029;-61
2023/04/10 12:32:39;;;;;;;2.05;1.70;;;;;;;;;;10411782;28;20029;-61
2023/04/10 12:37:53;;;;;;;1.65;1.55;;;;;;;;;;10414119;28;20044;-61
2023/04/10 12:42:53;;;;;;;1.63;1.52;;;;;;;;;;10413090;28;20404;-61
2023/04/10 12:47:55;;;;;;;2.05;1.77;;;;;;;;;;10411404;28;20018;-61
2023/04/10 12:53:10;;;;;;;1.95;1.75;;;;;;;;;;10411006;28;20111;-61
2023/04/10 12:58:21;;;;;;;1.77;1.48;;;;;;;;;;10399826;28;20037;-60
2023/04/10 13:03:22;;;;;;;2.03;1.60;;;;;;;;;;10411783;28;20378;-61
2023/04/10 13:08:22;;;;;;;1.65;1.55;;;;;;;;;;10411122;28;20029;-61
2023/04/10 13:13:23;;;;;;;1.95;1.75;;;;;;;;;;10411407;28;20575;-61
2023/04/10 13:18:24;;;;;;;1.88;1.77;;;;;;;;;;10410283;28;20025;-61
2023/04/10 13:23:24;;;;;;;1.70;1.60;;;;;;;;;;10411310;28;20037;-61
2023/04/10 13:28:25;;;;;;;1.70;1.60;;;;;;;;;;10410006;28;20025;-62
2023/04/10 13:33:25;;;;;;;1.70;1.60;;;;;;;;;;10410349;28;20044;-61
2023/04/10 13:38:26;;;;;;;2.25;1.85;;;;;;;;;;10413735;28;20048;-61
2023/04/10 13:43:27;;;;;;;1.98;1.80;;;;;;;;;;10410699;28;20024;-61
2023/04/10 13:48:27;;;;;;;3.42;1.70;;;;;;;;;;10410896;28;20106;-61
2023/04/10 13:53:28;;;;;;;2.17;1.98;;;;;;;;;;10409656;28;20045;-61
2023/04/10 13:58:30;;;;;;;1.83;1.73;;;;;;;;;;10409013;28;20029;-61
2023/04/10 14:03:31;;;;;;;1.90;1.80;;;;;;;;;;10410488;28;20040;-64
2023/04/10 14:08:32;;;;;;;2.22;1.92;;;;;;;;;;10409190;28;20539;-61
2023/04/10 14:13:32;;;;;;;2.40;1.88;;;;;;;;;;10408015;28;20033;-61
2023/04/10 14:18:33;;;;;;;3.25;1.92;;;;;;;;;;10408990;28;20218;-61
2023/04/10 14:23:33;;;;;;;1.80;1.70;;;;;;;;;;10407717;28;20389;-62
2023/04/10 14:28:34;;;;;;;1.92;1.73;;;;;;;;;;10408155;28;20025;-66
2023/04/10 14:33:35;;;;;;;1.70;1.60;;;;;;;;;;10408709;28;20033;-61
2023/04/10 14:38:35;;;;;;;2.28;1.70;;;;;;;;;;10412177;28;20018;-61
2023/04/10 14:43:36;;;;;;;2.22;2.03;;;;;;;;;;10410391;28;20026;-61
2023/04/10 14:48:37;;;;;;;1.95;1.85;;;;;;;;;;10408734;28;20053;-61
2023/04/10 14:53:38;;;;;;;3.67;1.98;;;;;;;;;;10423808;23;20589;-50
2023/04/10 14:58:39;;;;;;;2.38;1.70;;;;;;;;;;10407568;28;20029;-50
2023/04/10 15:03:40;;;;;;;2.00;1.90;;;;;;;;;;10408737;28;20033;-50
2023/04/10 15:08:40;;;;;;;1.63;1.52;;;;;;;;;;10408459;28;20022;-51
2023/04/10 15:13:41;;;;;;;2.17;2.00;;;;;;;;;;10407489;28;20025;-52
2023/04/10 15:18:41;;;;;;;1.92;1.80;;;;;;;;;;10408211;28;20053;-50
2023/04/10 15:23:42;;;;;;;1.92;1.60;;;;;;;;;;10407714;28;20033;-50
2023/04/10 15:28:43;;;;;;;2.22;2.03;;;;;;;;;;10408164;28;20389;-49
2023/04/10 15:33:44;;;;;;;2.00;1.80;;;;;;;;;;10415105;28;20030;-52
2023/04/10 15:38:44;;;;;;;2.15;2.00;;;;;;;;;;10420343;28;20025;-50
2023/04/10 15:43:45;;;;;;;1.80;1.70;;;;;;;;;;10414388;28;20025;-54
2023/04/10 15:48:45;;;;;;;2.13;1.95;;;;;;;;;;10415373;28;20021;-50
2023/04/10 15:53:46;;;;;;;2.85;2.05;;;;;;;;;;10414900;28;20049;-50
2023/04/10 15:58:46;;;;;;;2.10;1.90;;;;;;;;;;10413881;28;20029;-51
2023/04/10 16:03:47;;;;;;;1.95;1.85;;;;;;;;;;10413793;28;20040;-51
2023/04/10 16:08:51;;;;;;;1.85;1.75;;;;;;;;;;10414074;28;20049;-50
2023/04/10 16:13:51;;;;;;;2.00;1.80;;;;;;;;;;10412224;28;20536;-49
2023/04/10 16:18:53;;;;;;;2.38;1.77;;;;;;;;;;10414441;28;20080;-53
2023/04/10 16:23:53;;;;;;;2.10;1.88;;;;;;;;;;10413693;28;20040;-51
2023/04/10 16:28:54;;;;;;;2.35;1.90;;;;;;;;;;10412233;28;20033;-52
2023/04/10 16:33:55;;;;;;;1.90;1.80;;;;;;;;;;10412775;28;20040;-52
2023/04/10 16:38:55;;;;;;;1.83;1.73;;;;;;;;;;10412295;28;20029;-52
2023/04/10 16:43:56;;;;;;;1.92;1.70;;;;;;;;;;10409986;28;20036;-51
2023/04/10 16:48:57;;;;;;;2.10;1.67;;;;;;;;;;10412685;28;20022;-51
2023/04/10 16:53:57;;;;;;;1.85;1.75;;;;;;;;;;10410915;28;20056;-51
2023/04/10 16:58:58;;;;;;;8.07;2.58;;;;;;;;;;10412117;28;20029;-51
2023/04/10 17:03:58;;;;;;;15.98;2.80;;;;;;;;;;10411164;28;20215;-51
2023/04/10 17:08:59;;;;;;;8.77;2.50;;;;;;;;;;10410720;28;20098;-51
2023/04/10 17:14:00;;;;;;;10.10;2.30;;;;;;;;;;10410283;28;20037;-51
2023/04/10 17:19:00;;;;;;;9.13;2.45;;;;;;;;;;10410788;28;20029;-53
2023/04/10 17:24:01;;;;;;;6.22;1.80;;;;;;;;;;10410095;28;20116;-50
2023/04/10 17:29:02;;;;;;;12.05;2.78;;;;;;;;;;10409347;28;20404;-56
2023/04/10 17:34:02;;;;;;;4.68;2.20;;;;;;;;;;10408408;28;20037;-53
2023/04/10 17:39:04;;;;;;;14.35;2.92;;;;;;;;;;10408489;28;20026;-52
2023/04/10 17:44:05;;;;;;;8.07;2.88;;;;;;;;;;10408511;28;20037;-50
2023/04/10 17:49:05;;;;;;;11.55;2.97;;;;;;;;;;10408342;28;20053;-51
2023/04/10 17:54:06;;;;;;;9.73;2.75;;;;;;;;;;10406988;28;20497;-51
2023/04/10 17:59:07;;;;;;;10.85;2.53;;;;;;;;;;10407970;28;20029;-49
2023/04/10 18:04:08;;;;;;;6.93;2.80;;;;;;;;;;10406557;28;20038;-47
2023/04/10 18:09:08;;;;;;;14.07;2.40;;;;;;;;;;10408193;28;20056;-54
2023/04/10 18:14:09;;;;;;;7.88;2.58;;;;;;;;;;10407831;28;20620;-50
2023/04/10 18:19:10;;;;;;;6.35;2.20;;;;;;;;;;10406403;28;20392;-51
2023/04/10 18:24:10;;;;;;;8.20;2.30;;;;;;;;;;10407332;28;20437;-50
2023/04/10 18:29:11;;;;;;;5.05;2.40;;;;;;;;;;10407766;28;20147;-49
2023/04/10 18:34:12;;;;;;;8.35;2.20;;;;;;;;;;10407086;28;20025;-51
2023/04/10 18:39:12;;;;;;;13.63;2.38;;;;;;;;;;10409355;28;20056;-51
2023/04/10 18:44:13;;;;;;;5.55;2.30;;;;;;;;;;10408439;28;20029;-51
2023/04/10 18:49:14;;;;;;;7.82;2.28;;;;;;;;;;10401087;28;20385;-52
2023/04/10 18:54:15;;;;;;;4.00;2.35;;;;;;;;;;10386738;28;20096;-50
2023/04/10 18:59:15;;;;;;;4.63;2.20;;;;;;;;;;10393066;28;20034;-51
2023/04/10 19:04:16;;;;;;;7.50;2.30;;;;;;;;;;10406716;28;20029;-50
2023/04/10 19:09:16;;;;;;;5.93;2.45;;;;;;;;;;10411672;28;20056;-50
2023/04/10 19:14:17;;;;;;;6.80;2.22;;;;;;;;;;10411355;28;20059;-50
2023/04/10 19:19:18;;;;;;;5.85;2.25;;;;;;;;;;10406463;28;20702;-49
2023/04/10 19:24:18;;;;;;;4.47;2.25;;;;;;;;;;10410309;28;20509;-51
2023/04/10 19:29:19;;;;;;;6.63;2.00;;;;;;;;;;10410052;28;20034;-51
2023/04/10 19:34:20;;;;;;;5.30;2.10;;;;;;;;;;10410130;28;20037;-50
2023/04/10 19:39:20;;;;;;;4.50;2.13;;;;;;;;;;10414525;28;20025;-50
2023/04/10 19:44:21;;;;;;;3.97;2.00;;;;;;;;;;10412726;28;20028;-50
2023/04/10 19:49:22;;;;;;;7.47;2.00;;;;;;;;;;10411632;28;20030;-52
2023/04/10 19:54:22;;;;;;;2.80;2.38;;;;;;;;;;10376009;28;1118692;-51
2023/04/10 19:59:23;;;;;;;3.35;2.10;;;;;;;;;;10413337;28;20033;-51
2023/04/10 20:04:24;;;;;;;9.70;2.60;;;;;;;;;;10413515;28;20049;-51
2023/04/10 20:09:24;;;;;;;5.57;2.40;;;;;;;;;;10413631;28;20473;-50
2023/04/10 20:14:25;;;;;;;2.55;2.22;;;;;;;;;;10409425;28;20500;-51
2023/04/10 20:19:25;;;;;;;3.90;2.20;;;;;;;;;;10411899;28;20022;-48
2023/04/10 20:24:26;;;;;;;2.35;2.10;;;;;;;;;;10411490;28;20083;-51
2023/04/10 20:29:26;;;;;;;3.88;2.08;;;;;;;;;;10408721;28;20021;-50
2023/04/10 20:34:27;;;;;;;2.63;2.00;;;;;;;;;;10407385;28;20026;-51
2023/04/10 20:39:28;;;;;;;5.05;2.35;;;;;;;;;;10411363;28;20218;-50
2023/04/10 20:44:28;;;;;;;4.78;2.35;;;;;;;;;;10396537;28;20068;-50
2023/04/10 20:49:29;;;;;;;5.22;1.98;;;;;;;;;;10407807;28;20030;-51
2023/04/10 20:54:29;;;;;;;4.80;1.75;;;;;;;;;;10410115;28;20045;-51
2023/04/10 20:59:31;;;;;;;3.20;2.22;;;;;;;;;;10410415;28;20082;-51
2023/04/10 21:04:32;;;;;;;5.53;2.22;;;;;;;;;;10410124;28;20517;-48
2023/04/10 21:09:32;;;;;;;3.67;2.10;;;;;;;;;;10410811;28;20014;-52
2023/04/10 21:14:34;;;;;;;4.22;2.28;;;;;;;;;;10409619;28;20048;-49
2023/04/10 21:19:35;;;;;;;5.70;2.20;;;;;;;;;;10409640;28;20082;-52
2023/04/10 21:24:36;;;;;;;2.40;1.88;;;;;;;;;;10409699;28;21577;-49
2023/04/10 21:29:36;;;;;;;5.45;2.58;;;;;;;;;;10408440;28;20025;-50
2023/04/10 21:34:37;;;;;;;3.72;2.20;;;;;;;;;;10408832;28;20025;-49
2023/04/10 21:39:40;;;;;;;5.15;2.05;;;;;;;;;;10411271;28;20466;-50
2023/04/10 21:44:41;;;;;;;5.60;2.20;;;;;;;;;;10409471;28;20474;-50
2023/04/10 21:49:41;;;;;;;6.15;1.98;;;;;;;;;;10410569;28;20034;-49
2023/04/10 21:54:42;;;;;;;3.92;2.17;;;;;;;;;;10409041;28;20099;-52
2023/04/10 21:59:42;;;;;;;5.75;2.00;;;;;;;;;;10410226;28;20033;-51
2023/04/10 22:04:43;;;;;;;3.05;2.10;;;;;;;;;;10410760;28;20041;-51
2023/04/10 22:09:43;;;;;;;4.43;2.45;;;;;;;;;;10409918;28;20040;-50
2023/04/10 22:14:44;;;;;;;7.25;2.40;;;;;;;;;;10407823;28;20026;-52
2023/04/10 22:19:45;;;;;;;3.90;2.15;;;;;;;;;;10408636;28;20183;-51
2023/04/10 22:24:46;;;;;;;3.80;2.20;;;;;;;;;;10409367;28;20156;-51
2023/04/10 22:29:46;;;;;;;3.92;2.35;;;;;;;;;;10408411;28;20040;-50
2023/04/10 22:34:47;;;;;;;5.30;2.28;;;;;;;;;;10409716;28;20029;-52
2023/04/10 22:39:47;;;;;;;4.85;2.08;;;;;;;;;;10409173;28;20021;-49
2023/04/10 22:44:48;;;;;;;6.80;2.20;;;;;;;;;;10408001;28;20030;-51
2023/04/10 22:49:49;;;;;;;5.15;2.17;;;;;;;;;;10408708;28;20122;-51
2023/04/10 22:54:50;;;;;;;4.50;1.98;;;;;;;;;;10406917;28;20589;-51
2023/04/10 22:59:50;;;;;;;4.20;2.22;;;;;;;;;;10408226;28;20248;-50
2023/04/10 23:04:51;;;;;;;3.05;2.13;;;;;;;;;;10408704;28;20043;-52
2023/04/10 23:09:51;;;;;;;4.55;2.00;;;;;;;;;;10409459;28;20028;-50
2023/04/10 23:14:52;;;;;;;3.83;1.88;;;;;;;;;;10407773;28;20048;-51
2023/04/10 23:19:53;;;;;;;2.80;1.90;;;;;;;;;;10408003;28;20029;-49
2023/04/10 23:24:54;;;;;;;3.55;2.20;;;;;;;;;;10407361;28;20018;-51
2023/04/10 23:29:55;;;;;;;2.92;2.13;;;;;;;;;;10406669;28;20185;-51
2023/04/10 23:34:56;;;;;;;3.20;1.80;;;;;;;;;;10408044;28;20026;-51
2023/04/10 23:39:56;;;;;;;2.00;1.80;;;;;;;;;;10411365;28;20028;-50
2023/04/10 23:44:57;;;;;;;5.50;1.92;;;;;;;;;;10404823;28;20432;-49
2023/04/10 23:49:57;;;;;;;2.67;2.10;;;;;;;;;;10409149;28;20388;-52
2023/04/10 23:54:59;;;;;;;2.85;2.25;;;;;;;;;;10414683;28;20505;-51
2023/04/10 23:59:59;;;;;;;2.90;2.10;;;;;;;;;;10414570;28;20029;-49
